createdAt,value
2018-06-22T00:02:50.151Z,71.70
2018-06-22T00:07:55.634Z,71.90
2018-06-22T00:13:00.273Z,72.10
2018-06-22T00:18:05.080Z,72.30
2018-06-22T00:23:09.656Z,72.60
2018-06-22T00:28:14.290Z,72.90
2018-06-22T00:33:18.965Z,73.60
2018-06-22T00:38:23.590Z,74.00
2018-06-22T00:43:28.517Z,74.50
2018-06-22T00:48:33.616Z,74.90
2018-06-22T00:53:49.076Z,75.50
2018-06-22T00:58:55.855Z,75.50
2018-06-22T01:04:00.343Z,75.60
2018-06-22T01:09:07.581Z,75.70
2018-06-22T01:14:12.440Z,76.40
2018-06-22T01:19:17.064Z,76.40
2018-06-22T01:24:21.706Z,76.70
2018-06-22T01:29:30.432Z,76.90
2018-06-22T01:34:35.158Z,77.90
2018-06-22T01:39:39.900Z,77.30
2018-06-22T01:44:44.553Z,78.50
2018-06-22T01:49:49.376Z,78.90
2018-06-22T01:54:54.247Z,78.70
2018-06-22T01:59:59.045Z,79.10
2018-06-22T02:05:03.988Z,78.80
2018-06-22T02:10:08.837Z,78.70
2018-06-22T02:15:13.770Z,78.90
2018-06-22T02:20:18.604Z,79.00
2018-06-22T02:25:29.503Z,79.00
2018-06-22T02:30:34.319Z,80.20
2018-06-22T02:35:39.064Z,79.10
2018-06-22T02:40:43.825Z,79.00
2018-06-22T02:45:48.620Z,79.80
2018-06-22T02:50:53.593Z,80.40
2018-06-22T02:55:58.147Z,80.20
2018-06-22T03:01:03.070Z,80.70
2018-06-22T03:06:07.866Z,80.40
2018-06-22T03:11:12.785Z,79.70
2018-06-22T03:16:18.938Z,80.20
2018-06-22T03:21:24.357Z,81.20
2018-06-22T03:26:30.606Z,81.40
2018-06-22T03:31:38.131Z,80.70
2018-06-22T03:36:44.367Z,80.50
2018-06-22T03:41:49.332Z,80.50
2018-06-22T03:46:54.110Z,80.00
2018-06-22T03:51:59.957Z,80.10
2018-06-22T03:57:04.686Z,80.70
2018-06-22T04:02:09.655Z,81.20
2018-06-22T04:07:14.483Z,80.20
2018-06-22T04:12:19.246Z,80.80
2018-06-22T04:17:24.587Z,81.00
2018-06-22T04:22:30.122Z,81.50
2018-06-22T04:27:43.971Z,80.90
2018-06-22T04:32:49.944Z,80.90
2018-06-22T04:37:54.660Z,81.40
2018-06-22T04:42:59.359Z,81.80
2018-06-22T04:48:04.238Z,81.30
2018-06-22T04:53:09.618Z,81.30
2018-06-22T04:58:14.345Z,81.70
2018-06-22T05:03:18.900Z,82.10
2018-06-22T05:08:24.242Z,81.00
2018-06-22T05:13:36.136Z,81.50
2018-06-22T05:18:50.469Z,82.60
2018-06-22T05:23:56.597Z,83.40
2018-06-22T05:29:01.460Z,83.50
2018-06-22T05:34:06.147Z,83.30
2018-06-22T05:39:12.407Z,82.80
2018-06-22T05:44:17.577Z,82.30
2018-06-22T05:49:22.298Z,81.40
2018-06-22T05:54:35.171Z,81.70
2018-06-22T05:59:41.402Z,81.70
2018-06-22T06:04:46.410Z,80.70
2018-06-22T06:09:51.366Z,80.50
2018-06-22T06:14:56.625Z,81.00
2018-06-22T06:20:01.792Z,80.90
2018-06-22T06:25:06.560Z,80.10
2018-06-22T06:30:11.259Z,79.30
2018-06-22T06:35:15.954Z,79.80
2018-06-22T06:40:20.584Z,79.80
2018-06-22T06:45:36.861Z,78.60
2018-06-22T06:50:41.491Z,78.60
2018-06-22T06:55:46.212Z,78.30
2018-06-22T07:00:50.890Z,77.60
2018-06-22T07:05:55.656Z,76.90
2018-06-22T07:11:00.260Z,76.50
2018-06-22T07:16:05.015Z,77.30
2018-06-22T07:21:10.557Z,77.10
2018-06-22T07:26:15.353Z,76.90
2018-06-22T07:31:20.481Z,77.60
2018-06-22T07:36:25.244Z,78.20
2018-06-22T07:41:29.832Z,78.70
2018-06-22T07:46:34.708Z,78.60
2018-06-22T07:51:39.545Z,77.20
2018-06-22T07:56:44.387Z,77.00
2018-06-22T08:01:49.333Z,76.00
2018-06-22T08:06:57.075Z,77.60
2018-06-22T08:12:01.743Z,78.10
2018-06-22T08:17:06.813Z,78.70
2018-06-22T08:22:11.599Z,76.20
2018-06-22T08:27:16.308Z,75.10
2018-06-22T08:32:21.158Z,74.30
2018-06-22T08:37:26.298Z,73.50
2018-06-22T08:42:31.134Z,73.90
2018-06-22T08:47:35.993Z,72.90
2018-06-22T08:57:46.541Z,72.20
2018-06-22T09:02:51.303Z,74.10
2018-06-22T09:07:56.074Z,72.70
2018-06-22T09:13:01.040Z,72.40
2018-06-22T09:18:06.073Z,73.90
2018-06-22T09:28:14.913Z,72.20
2018-06-22T09:33:20.238Z,72.20
2018-06-22T09:38:25.124Z,71.60
2018-06-22T09:43:30.385Z,70.50
2018-06-22T09:48:35.337Z,72.20
2018-06-22T09:53:40.086Z,68.80
2018-06-22T09:58:45.113Z,68.00
2018-06-22T10:03:50.074Z,70.50
2018-06-22T10:08:54.690Z,69.30
2018-06-22T10:13:59.557Z,69.10
2018-06-22T10:19:04.252Z,65.70
2018-06-22T10:24:09.226Z,65.40
2018-06-22T10:29:14.050Z,63.80
2018-06-22T10:34:18.812Z,63.70
2018-06-22T10:39:23.610Z,63.00
2018-06-22T10:44:28.446Z,63.80
2018-06-22T10:49:33.427Z,61.70
2018-06-22T10:54:38.401Z,60.80
2018-06-22T10:59:43.345Z,61.50
2018-06-22T11:04:48.199Z,62.10
2018-06-22T11:09:53.229Z,60.60
2018-06-22T11:14:58.414Z,61.30
2018-06-22T11:20:03.395Z,61.30
2018-06-22T11:25:08.226Z,60.70
2018-06-22T11:30:13.102Z,61.00
2018-06-22T11:35:18.080Z,62.80
2018-06-22T11:40:22.997Z,61.50
2018-06-22T11:45:28.041Z,62.30
2018-06-22T11:50:32.923Z,61.00
2018-06-22T11:55:37.584Z,60.90
2018-06-22T12:00:42.476Z,60.30
2018-06-22T12:05:47.404Z,61.90
2018-06-22T12:10:52.197Z,59.80
2018-06-22T12:15:56.876Z,58.00
2018-06-22T12:21:01.946Z,58.00
2018-06-22T12:26:07.083Z,57.80
2018-06-22T12:31:11.745Z,54.70
2018-06-22T12:36:16.677Z,56.30
2018-06-22T12:41:21.280Z,54.30
2018-06-22T12:46:26.298Z,54.80
2018-06-22T12:51:31.218Z,54.70
2018-06-22T12:56:36.141Z,53.50
2018-06-22T13:01:40.961Z,53.00
2018-06-22T13:06:45.704Z,56.00
2018-06-22T13:11:50.563Z,58.70
2018-06-22T13:16:55.236Z,59.40
2018-06-22T13:22:00.232Z,60.90
2018-06-22T13:27:04.987Z,61.80
2018-06-22T13:32:09.760Z,61.90
2018-06-22T13:37:14.758Z,61.90
2018-06-22T13:42:19.620Z,63.10
2018-06-22T13:47:24.469Z,62.80
2018-06-22T13:52:29.203Z,63.50
2018-06-22T13:57:33.966Z,63.40
2018-06-22T14:02:39.773Z,64.10
2018-06-22T14:07:44.601Z,62.40
2018-06-22T14:12:49.644Z,63.40
2018-06-22T14:17:54.829Z,61.70
2018-06-22T14:23:10.960Z,60.60
2018-06-22T14:28:17.912Z,61.60
2018-06-22T14:33:26.972Z,61.20
2018-06-22T14:38:32.988Z,62.50
2018-06-22T14:43:38.078Z,61.70
2018-06-22T14:48:43.040Z,61.80
2018-06-22T14:59:02.455Z,56.50
2018-06-22T15:09:17.425Z,60.80
2018-06-22T15:14:22.666Z,62.60
2018-06-22T15:19:27.891Z,63.40
2018-06-22T15:24:32.907Z,63.00
2018-06-22T15:29:38.020Z,61.50
2018-06-22T15:34:48.246Z,61.70
2018-06-22T15:39:59.082Z,62.40
2018-06-22T15:45:09.100Z,59.60
2018-06-22T15:50:19.943Z,56.30
2018-06-22T15:55:27.358Z,53.60
2018-06-22T16:00:32.565Z,52.50
2018-06-22T16:05:37.427Z,52.40
2018-06-22T16:10:42.736Z,58.20
2018-06-22T16:15:52.801Z,61.90
2018-06-22T16:21:02.824Z,63.50
2018-06-22T16:26:12.928Z,62.20
2018-06-22T16:31:17.822Z,60.50
2018-06-22T16:36:23.069Z,59.70
2018-06-22T16:41:27.987Z,63.20
2018-06-22T16:46:33.019Z,65.10
2018-06-22T16:51:38.007Z,65.90
2018-06-22T16:56:43.103Z,66.00
2018-06-22T17:01:48.541Z,65.20
2018-06-22T17:06:58.591Z,64.00
2018-06-22T17:12:09.210Z,65.00
2018-06-22T17:17:19.085Z,63.30
2018-06-22T17:22:24.127Z,66.10
2018-06-22T17:27:29.244Z,65.10
2018-06-22T17:32:34.328Z,65.40
2018-06-22T17:37:39.232Z,66.10
2018-06-22T17:42:44.282Z,66.10
2018-06-22T17:47:49.050Z,67.00
2018-06-22T17:52:53.820Z,66.90
2018-06-22T17:57:58.806Z,67.30
2018-06-22T18:03:08.834Z,65.60
2018-06-22T18:08:19.581Z,65.60
2018-06-22T18:18:29.352Z,66.00
2018-06-22T18:23:34.118Z,66.60
2018-06-22T18:28:39.024Z,66.80
2018-06-22T18:33:44.486Z,68.10
2018-06-22T18:38:49.260Z,69.20
2018-06-22T18:43:59.459Z,69.40
2018-06-22T18:49:04.490Z,69.70
2018-06-22T18:54:14.342Z,70.20
2018-06-22T18:59:24.270Z,70.70
2018-06-22T19:04:29.111Z,71.30
2018-06-22T19:09:34.587Z,71.20
2018-06-22T19:14:39.789Z,71.90
2018-06-22T19:19:44.886Z,72.10
2018-06-22T19:24:49.889Z,73.10
2018-06-22T19:29:54.684Z,73.70
2018-06-22T19:35:04.589Z,74.10
2018-06-22T19:40:09.523Z,74.00
2018-06-22T19:45:19.653Z,74.00
2018-06-22T19:50:29.723Z,74.40
2018-06-22T19:55:34.669Z,75.20
2018-06-22T20:00:39.644Z,75.50
2018-06-22T20:05:44.343Z,75.90
2018-06-22T20:10:49.554Z,76.10
2018-06-22T20:15:55.166Z,76.10
2018-06-22T20:21:00.039Z,76.20
2018-06-22T20:26:04.973Z,76.70
2018-06-22T20:31:12.215Z,77.00
2018-06-22T20:36:22.500Z,77.00
2018-06-22T20:41:32.888Z,77.10
2018-06-22T20:46:42.789Z,77.50
2018-06-22T20:51:48.078Z,78.80
2018-06-22T20:56:55.310Z,80.30
2018-06-22T21:02:00.769Z,81.50
2018-06-22T21:07:05.853Z,80.40
2018-06-22T21:12:10.849Z,80.30
2018-06-22T21:17:16.186Z,80.10
2018-06-22T21:22:21.738Z,81.20
2018-06-22T21:27:33.394Z,82.10
2018-06-22T21:32:43.803Z,83.90
2018-06-22T21:37:54.186Z,85.00
2018-06-22T21:42:59.735Z,85.20
2018-06-22T21:48:04.622Z,84.00
2018-06-22T21:53:09.686Z,84.60
2018-06-22T21:58:14.821Z,85.40
2018-06-22T22:03:20.105Z,86.20
2018-06-22T22:08:25.045Z,87.30
2018-06-22T22:13:30.578Z,87.10
2018-06-22T22:18:35.505Z,86.20
2018-06-22T22:23:49.073Z,86.80
2018-06-22T22:28:57.515Z,87.50
2018-06-22T22:34:02.755Z,87.70
2018-06-22T22:39:08.216Z,86.40
2018-06-22T22:44:13.039Z,85.30
2018-06-22T22:49:18.016Z,84.40
2018-06-22T23:04:31.104Z,86.60
2018-06-22T23:09:35.740Z,87.00
2018-06-22T23:14:40.602Z,87.20
2018-06-22T23:19:45.544Z,87.50
2018-06-22T23:24:50.718Z,87.70
2018-06-22T23:29:55.630Z,88.20
2018-06-22T23:35:01.258Z,88.40
2018-06-22T23:40:06.334Z,88.60
2018-06-22T23:45:10.946Z,88.70
2018-06-22T23:50:16.302Z,88.80
2018-06-22T23:55:21.081Z,89.00
